Time;durP1;ratioP1;P1;durP2;ratioP2;P2;SDS_P1;SDS_P2;PMS_P1;PMS_P2;Temp;Humidity;BMP_temperature;BMP_pressure;BME280_temperature;BME280_humidity;BME280_pressure;Samples;Min_cycle;Max_cycle;Signal;HPM_P1;HPM_P2
2022/04/09 00:00:46;;;;;;;0.45;0.40;;;19.70;51.80;;;;;;5014659;28;20238;-70
2022/04/09 00:03:12;;;;;;;0.77;0.60;;;19.70;51.80;;;;;;5014369;28;20179;-70
2022/04/09 00:05:38;;;;;;;0.60;0.60;;;19.70;51.70;;;;;;5014348;28;20669;-70
2022/04/09 00:08:04;;;;;;;0.40;0.40;;;19.70;51.70;;;;;;5030781;28;20183;-70
2022/04/09 00:10:31;;;;;;;0.60;0.60;;;19.70;51.70;;;;;;5014573;28;20206;-70
2022/04/09 00:12:56;;;;;;;0.90;0.60;;;19.70;51.70;;;;;;5014521;28;20203;-70
2022/04/09 00:15:22;;;;;;;1.25;0.50;;;19.70;51.70;;;;;;5031568;28;20187;-70
2022/04/09 00:17:48;;;;;;;0.45;0.45;;;19.70;51.70;;;;;;5030617;28;20191;-70
2022/04/09 00:20:18;;;;;;;1.20;0.70;;;19.70;51.70;;;;;;5031775;28;20207;-70
2022/04/09 00:22:44;;;;;;;0.40;0.40;;;19.70;51.70;;;;;;5014026;28;20249;-70
2022/04/09 00:25:14;;;;;;;0.47;0.47;;;19.70;51.70;;;;;;5031720;28;20180;-70
2022/04/09 00:27:40;;;;;;;0.90;0.60;;;19.60;51.60;;;;;;5030702;28;20250;-70
2022/04/09 00:30:10;;;;;;;0.60;0.60;;;19.70;51.70;;;;;;5014345;28;20233;-70
2022/04/09 00:32:35;;;;;;;0.77;0.60;;;19.70;51.70;;;;;;5013992;28;20207;-70
2022/04/09 00:35:03;;;;;;;0.73;0.68;;;19.70;51.60;;;;;;5014172;28;20175;-70
2022/04/09 00:37:29;;;;;;;0.55;0.40;;;19.70;51.70;;;;;;5014135;28;20184;-70
2022/04/09 00:39:55;;;;;;;0.98;0.50;;;19.70;51.60;;;;;;5014111;28;20179;-70
2022/04/09 00:42:21;;;;;;;0.47;0.40;;;19.60;51.50;;;;;;5014394;28;20211;-70
2022/04/09 00:44:47;;;;;;;0.50;0.50;;;19.70;51.60;;;;;;5033928;28;20195;-70
2022/04/09 00:47:14;;;;;;;0.68;0.43;;;19.70;51.60;;;;;;5017577;28;20178;-70
2022/04/09 00:49:40;;;;;;;0.50;0.50;;;19.70;51.60;;;;;;5017589;28;20321;-70
2022/04/09 00:52:09;;;;;;;0.40;0.40;;;19.70;51.60;;;;;;5017406;28;20226;-70
2022/04/09 00:54:39;;;;;;;0.55;0.45;;;19.70;51.60;;;;;;5017576;28;20198;-70
2022/04/09 00:57:06;;;;;;;0.52;0.52;;;19.70;51.60;;;;;;5017450;28;20796;-70
2022/04/09 00:59:38;;;;;;;0.50;0.50;;;19.70;51.60;;;;;;5017459;28;20183;-70
2022/04/09 01:02:05;;;;;;;0.70;0.70;;;19.70;51.60;;;;;;5033830;28;20389;-70
2022/04/09 01:04:32;;;;;;;2.20;0.75;;;19.70;51.60;;;;;;5017371;28;20196;-70
2022/04/09 01:07:00;;;;;;;0.50;0.50;;;19.60;51.50;;;;;;5017273;28;20569;-70
2022/04/09 01:09:26;;;;;;;0.50;0.50;;;19.70;51.60;;;;;;5034970;28;20190;-70
2022/04/09 01:11:55;;;;;;;0.43;0.43;;;19.60;51.50;;;;;;5033975;28;20265;-70
2022/04/09 01:14:21;;;;;;;0.40;0.40;;;19.70;51.60;;;;;;5017125;28;20207;-70
2022/04/09 01:16:47;;;;;;;0.40;0.32;;;19.70;51.60;;;;;;5017383;28;20195;-70
2022/04/09 01:19:13;;;;;;;0.40;0.40;;;19.70;51.60;;;;;;5017070;28;20187;-70
2022/04/09 01:21:40;;;;;;;0.60;0.50;;;19.70;51.60;;;;;;5017203;28;20702;-70
2022/04/09 01:24:07;;;;;;;0.30;0.30;;;19.70;51.60;;;;;;5016945;28;20209;-70
2022/04/09 01:26:38;;;;;;;0.40;0.40;;;19.70;51.60;;;;;;5033370;28;20188;-70
2022/04/09 01:29:13;;;;;;;0.65;0.30;;;19.60;51.50;;;;;;5016829;28;20187;-70
2022/04/09 01:31:39;;;;;;;0.43;0.43;;;19.70;51.50;;;;;;5016924;28;20203;-70
2022/04/09 01:34:06;;;;;;;0.40;0.40;;;19.70;51.60;;;;;;5034241;28;20183;-70
2022/04/09 01:36:32;;;;;;;0.43;0.43;;;19.70;51.60;;;;;;5033203;28;20667;-70
2022/04/09 01:38:58;;;;;;;0.30;0.30;;;19.70;51.60;;;;;;5016505;28;20202;-70
2022/04/09 01:41:23;;;;;;;0.77;0.40;;;19.70;51.50;;;;;;5016435;28;20215;-70
2022/04/09 01:43:56;;;;;;;0.88;0.40;;;19.60;51.50;;;;;;5016753;28;20198;-70
2022/04/09 01:46:22;;;;;;;0.40;0.40;;;19.60;51.50;;;;;;5016593;28;20175;-70
2022/04/09 01:48:48;;;;;;;0.40;0.40;;;19.60;51.50;;;;;;5000146;28;20249;-70
2022/04/09 01:51:14;;;;;;;0.90;0.50;;;19.70;51.60;;;;;;5016775;28;20256;-70
2022/04/09 01:53:40;;;;;;;0.55;0.40;;;19.60;51.50;;;;;;5016203;28;20192;-70
2022/04/09 01:56:06;;;;;;;0.60;0.40;;;19.60;51.50;;;;;;5015761;28;20202;-70
2022/04/09 01:58:36;;;;;;;0.80;0.40;;;19.60;51.50;;;;;;5016851;28;20183;-70
2022/04/09 02:01:02;;;;;;;0.40;0.40;;;19.70;51.60;;;;;;5016173;28;20215;-70
2022/04/09 02:03:30;;;;;;;0.38;0.38;;;19.60;51.50;;;;;;5016399;28;20192;-70
2022/04/09 02:05:56;;;;;;;1.33;0.50;;;19.60;51.50;;;;;;5015977;28;20191;-70
2022/04/09 02:08:22;;;;;;;0.52;0.40;;;19.60;51.50;;;;;;5032661;28;20182;-70
2022/04/09 02:10:49;;;;;;;1.40;0.40;;;19.60;51.50;;;;;;5016051;28;20179;-70
2022/04/09 02:13:18;;;;;;;0.47;0.32;;;19.60;51.50;;;;;;5000017;28;20222;-70
2022/04/09 02:15:44;;;;;;;0.40;0.40;;;19.60;51.60;;;;;;5015836;28;20187;-70
2022/04/09 02:18:11;;;;;;;0.40;0.40;;;19.70;51.50;;;;;;5015912;28;20190;-70
2022/04/09 02:20:36;;;;;;;0.30;0.30;;;19.60;51.50;;;;;;5015775;28;20211;-70
2022/04/09 02:23:02;;;;;;;0.20;0.20;;;19.60;51.40;;;;;;5032254;28;20622;-70
2022/04/09 02:25:28;;;;;;;0.28;0.28;;;19.60;51.40;;;;;;5015772;28;20219;-70
2022/04/09 02:27:54;;;;;;;0.20;0.20;;;19.60;51.40;;;;;;5015992;28;20183;-69
2022/04/09 02:30:22;;;;;;;0.38;0.32;;;19.60;51.50;;;;;;5016412;28;20187;-70
2022/04/09 02:32:56;;;;;;;0.25;0.25;;;19.60;51.40;;;;;;5032072;28;20211;-70
2022/04/09 02:35:28;;;;;;;0.35;0.35;;;19.60;51.40;;;;;;5015456;28;20187;-70
2022/04/09 02:37:56;;;;;;;1.00;0.40;;;19.60;51.40;;;;;;5015767;28;20654;-70
2022/04/09 02:40:23;;;;;;;0.40;0.40;;;19.60;51.40;;;;;;5032216;28;20215;-70
2022/04/09 02:42:51;;;;;;;0.85;0.50;;;19.60;51.40;;;;;;5043132;22;20578;-68
2022/04/09 02:45:17;;;;;;;0.50;0.50;;;19.60;51.40;;;;;;5015793;28;20206;-70
2022/04/09 02:47:43;;;;;;;0.38;0.38;;;19.60;51.40;;;;;;5043276;28;20187;-70
2022/04/09 02:50:14;;;;;;;0.30;0.30;;;19.60;51.40;;;;;;5035551;28;20185;-70
2022/04/09 02:52:41;;;;;;;0.40;0.40;;;19.60;51.40;;;;;;5035026;28;20182;-70
2022/04/09 02:55:09;;;;;;;0.55;0.40;;;19.60;51.40;;;;;;5031878;28;20203;-70
2022/04/09 02:57:37;;;;;;;0.30;0.30;;;19.60;51.40;;;;;;5015406;28;20286;-70
2022/04/09 03:00:08;;;;;;;0.40;0.40;;;19.60;51.30;;;;;;5015124;28;20180;-70
2022/04/09 03:02:37;;;;;;;0.30;0.30;;;19.60;51.30;;;;;;5015290;28;20182;-70
2022/04/09 03:05:06;;;;;;;0.50;0.50;;;19.60;51.40;;;;;;4998677;28;20195;-70
2022/04/09 03:07:32;;;;;;;0.40;0.40;;;19.60;51.40;;;;;;5014135;28;20183;-70
2022/04/09 03:09:58;;;;;;;0.38;0.38;;;19.60;51.40;;;;;;5015286;28;20218;-70
2022/04/09 03:12:24;;;;;;;0.40;0.40;;;19.60;51.30;;;;;;5014897;28;20222;-70
2022/04/09 03:14:49;;;;;;;0.95;0.40;;;19.60;51.30;;;;;;5014686;28;20210;-70
2022/04/09 03:17:16;;;;;;;0.40;0.40;;;19.60;51.20;;;;;;5014765;28;20560;-70
2022/04/09 03:19:42;;;;;;;0.30;0.30;;;19.60;51.20;;;;;;5014911;28;20179;-70
2022/04/09 03:22:09;;;;;;;0.30;0.30;;;19.60;51.20;;;;;;5015387;28;20214;-70
2022/04/09 03:24:37;;;;;;;0.40;0.38;;;19.60;51.20;;;;;;5014906;28;20207;-70
2022/04/09 03:27:04;;;;;;;0.20;0.20;;;19.60;51.30;;;;;;5014867;28;20183;-70
2022/04/09 03:29:31;;;;;;;0.20;0.20;;;19.60;51.20;;;;;;5015076;28;20190;-70
2022/04/09 03:32:00;;;;;;;0.68;0.40;;;19.60;51.20;;;;;;5031414;28;20183;-70
2022/04/09 03:34:28;;;;;;;0.40;0.35;;;19.60;51.10;;;;;;5014717;28;20202;-70
2022/04/09 03:36:55;;;;;;;0.47;0.30;;;19.60;51.10;;;;;;5015258;28;20190;-70
2022/04/09 03:39:21;;;;;;;0.75;0.40;;;19.60;51.10;;;;;;5014688;28;20187;-70
2022/04/09 03:41:47;;;;;;;0.40;0.40;;;19.60;51.00;;;;;;5014631;28;20238;-69
2022/04/09 03:44:13;;;;;;;0.35;0.35;;;19.60;51.00;;;;;;5014303;28;20214;-70
2022/04/09 03:46:45;;;;;;;0.38;0.38;;;19.60;51.10;;;;;;5014758;28;20238;-70
2022/04/09 03:49:15;;;;;;;0.50;0.43;;;19.60;51.00;;;;;;5031087;28;20214;-69
2022/04/09 03:51:42;;;;;;;0.40;0.40;;;19.60;51.00;;;;;;5014569;28;20278;-70
2022/04/09 03:54:10;;;;;;;0.30;0.30;;;19.60;51.00;;;;;;5014771;28;20268;-70
2022/04/09 03:56:36;;;;;;;0.30;0.30;;;19.60;51.00;;;;;;4998207;28;20195;-70
2022/04/09 03:59:02;;;;;;;0.85;0.50;;;19.60;51.00;;;;;;5014512;28;20183;-70
2022/04/09 04:01:28;;;;;;;0.38;0.38;;;19.60;51.00;;;;;;5014405;28;20294;-70
2022/04/09 04:03:57;;;;;;;0.52;0.40;;;19.60;51.00;;;;;;5031282;28;20206;-70
2022/04/09 04:06:25;;;;;;;0.45;0.43;;;19.60;51.00;;;;;;4998403;28;20187;-70
2022/04/09 04:08:55;;;;;;;0.40;0.40;;;19.60;51.00;;;;;;5014754;28;20183;-70
2022/04/09 04:11:23;;;;;;;0.50;0.50;;;19.60;51.00;;;;;;5002483;28;20184;-70
2022/04/09 04:13:50;;;;;;;0.40;0.40;;;19.60;51.00;;;;;;4978270;28;20287;-70
2022/04/09 04:16:17;;;;;;;0.32;0.32;;;19.60;51.00;;;;;;4994759;28;20278;-70
2022/04/09 04:18:44;;;;;;;0.30;0.30;;;19.60;51.00;;;;;;5013491;28;20275;-70
2022/04/09 04:21:11;;;;;;;0.30;0.30;;;19.60;51.00;;;;;;5014677;28;20310;-70
2022/04/09 04:23:39;;;;;;;0.45;0.45;;;19.60;51.00;;;;;;4982453;28;20250;-70
2022/04/09 04:26:14;;;;;;;0.20;0.20;;;19.60;51.00;;;;;;5013668;28;20168;-70
2022/04/09 04:28:41;;;;;;;0.30;0.30;;;19.60;51.00;;;;;;5014341;28;20226;-70
2022/04/09 04:31:08;;;;;;;0.40;0.40;;;19.60;51.00;;;;;;4998321;28;20234;-70
2022/04/09 04:33:36;;;;;;;0.40;0.40;;;19.60;51.00;;;;;;5014503;28;20244;-70
2022/04/09 04:36:04;;;;;;;0.38;0.38;;;19.60;51.00;;;;;;5014694;28;20184;-69
2022/04/09 04:38:33;;;;;;;0.57;0.57;;;19.60;51.10;;;;;;4998432;28;20176;-70
2022/04/09 04:41:02;;;;;;;0.60;0.52;;;19.60;51.10;;;;;;4998321;28;20215;-69
2022/04/09 04:43:29;;;;;;;0.40;0.40;;;19.60;51.10;;;;;;5013989;28;20216;-70
2022/04/09 04:45:55;;;;;;;0.73;0.50;;;19.60;51.00;;;;;;4998052;28;20203;-69
2022/04/09 04:48:21;;;;;;;0.63;0.60;;;19.60;51.00;;;;;;4997942;28;20213;-69
2022/04/09 04:50:48;;;;;;;0.57;0.57;;;19.60;51.00;;;;;;4998166;28;20183;-69
2022/04/09 04:53:15;;;;;;;0.68;0.40;;;19.60;51.00;;;;;;4998089;28;20212;-70
2022/04/09 04:55:46;;;;;;;0.40;0.40;;;19.60;51.00;;;;;;4997762;28;20172;-70
2022/04/09 04:58:19;;;;;;;0.63;0.57;;;19.60;51.00;;;;;;4998296;28;20198;-70
2022/04/09 05:00:51;;;;;;;0.40;0.40;;;19.60;51.00;;;;;;5014339;28;20271;-69
2022/04/09 05:03:19;;;;;;;0.60;0.60;;;19.60;51.00;;;;;;5013751;28;20302;-70
2022/04/09 05:05:57;;;;;;;0.50;0.50;;;19.60;51.00;;;;;;4997662;28;20180;-70
2022/04/09 05:08:22;;;;;;;0.73;0.50;;;19.60;51.10;;;;;;4997879;28;20187;-70
2022/04/09 05:10:49;;;;;;;0.60;0.60;;;19.60;51.00;;;;;;4998057;28;20184;-70
2022/04/09 05:13:17;;;;;;;0.70;0.70;;;19.60;51.00;;;;;;5013707;28;20292;-69
2022/04/09 05:15:44;;;;;;;0.70;0.70;;;19.60;51.00;;;;;;4981360;28;20195;-70
2022/04/09 05:18:11;;;;;;;0.80;0.80;;;19.60;51.00;;;;;;4981684;28;20191;-70
2022/04/09 05:20:37;;;;;;;0.65;0.65;;;19.60;51.00;;;;;;5013592;28;20208;-70
2022/04/09 05:23:07;;;;;;;0.70;0.70;;;19.60;51.00;;;;;;4981923;28;20226;-70
2022/04/09 05:25:34;;;;;;;1.45;0.90;;;19.60;51.00;;;;;;4997083;28;20196;-70
2022/04/09 05:28:05;;;;;;;0.80;0.80;;;19.60;51.00;;;;;;5013193;28;20184;-70
2022/04/09 05:30:35;;;;;;;0.90;0.68;;;19.60;51.00;;;;;;4997007;28;20770;-70
2022/04/09 05:33:03;;;;;;;0.77;0.70;;;19.60;51.00;;;;;;4992661;28;20189;-69
2022/04/09 05:35:30;;;;;;;1.02;0.60;;;19.60;51.00;;;;;;4977945;28;20184;-70
2022/04/09 05:37:56;;;;;;;0.57;0.57;;;19.60;51.00;;;;;;4993782;28;20231;-70
2022/04/09 05:40:28;;;;;;;0.80;0.80;;;19.60;51.00;;;;;;4980008;28;20276;-70
2022/04/09 05:42:57;;;;;;;0.57;0.57;;;19.60;51.00;;;;;;4981520;28;20210;-70
2022/04/09 05:45:24;;;;;;;0.82;0.70;;;19.60;51.00;;;;;;5004393;28;20192;-70
2022/04/09 05:47:50;;;;;;;0.90;0.80;;;19.60;51.00;;;;;;5009910;28;20279;-70
2022/04/09 05:50:22;;;;;;;0.77;0.77;;;19.60;51.00;;;;;;5009984;28;20185;-70
2022/04/09 05:52:50;;;;;;;0.63;0.63;;;19.60;51.00;;;;;;5009815;28;20260;-69
2022/04/09 05:55:17;;;;;;;1.00;0.88;;;19.60;51.00;;;;;;5009755;28;20648;-70
2022/04/09 05:57:43;;;;;;;1.02;1.02;;;19.60;51.00;;;;;;5004434;28;20268;-70
2022/04/09 06:00:11;;;;;;;0.77;0.77;;;19.60;51.00;;;;;;4996508;28;20271;-69
2022/04/09 06:02:59;;;;;;;1.00;0.95;;;19.60;51.00;;;;;;5013104;28;20327;-69
2022/04/09 06:05:33;;;;;;;1.23;0.80;;;19.60;51.00;;;;;;4996272;28;20192;-70
2022/04/09 06:08:01;;;;;;;1.00;1.00;;;19.60;51.00;;;;;;4996847;28;20176;-70
2022/04/09 06:10:27;;;;;;;1.52;0.82;;;19.60;51.00;;;;;;4996759;28;20180;-69
2022/04/09 06:12:53;;;;;;;1.13;1.02;;;19.60;51.00;;;;;;4995985;28;20207;-70
2022/04/09 06:15:25;;;;;;;1.23;1.10;;;19.60;51.00;;;;;;5009308;28;20207;-69
2022/04/09 06:17:53;;;;;;;1.25;1.08;;;19.60;51.00;;;;;;4993585;28;20242;-69
2022/04/09 06:20:19;;;;;;;0.85;0.80;;;19.60;51.00;;;;;;4993067;28;20201;-70
2022/04/09 06:22:46;;;;;;;1.75;0.93;;;19.60;50.90;;;;;;5009663;28;20185;-70
2022/04/09 06:25:15;;;;;;;1.10;1.00;;;19.60;50.90;;;;;;5009209;28;20268;-69
2022/04/09 06:27:42;;;;;;;1.15;1.02;;;19.60;50.80;;;;;;5010382;28;20195;-70
2022/04/09 06:30:11;;;;;;;1.33;0.85;;;19.60;50.70;;;;;;5012280;28;20214;-69
2022/04/09 06:32:39;;;;;;;1.10;1.00;;;19.60;50.70;;;;;;4996120;28;20249;-70
2022/04/09 06:35:06;;;;;;;0.90;0.90;;;19.60;50.70;;;;;;4995777;28;20215;-70
2022/04/09 06:37:37;;;;;;;2.05;1.50;;;19.60;50.70;;;;;;4995873;28;20180;-70
2022/04/09 06:40:09;;;;;;;1.65;1.55;;;19.60;50.70;;;;;;4996048;28;20235;-70
2022/04/09 06:42:37;;;;;;;1.42;1.40;;;19.60;50.60;;;;;;4996162;28;20181;-70
2022/04/09 06:45:26;;;;;;;1.17;1.10;;;19.60;50.60;;;;;;5004907;28;20195;-69
2022/04/09 06:48:17;;;;;;;1.10;1.00;;;19.60;50.60;;;;;;5013203;28;20195;-70
2022/04/09 06:50:59;;;;;;;1.15;1.05;;;19.60;50.60;;;;;;4995747;28;20194;-70
2022/04/09 06:53:25;;;;;;;0.88;0.88;;;19.60;50.60;;;;;;4992689;28;20212;-70
2022/04/09 06:55:51;;;;;;;1.30;1.20;;;19.60;50.60;;;;;;4960029;28;20192;-70
2022/04/09 06:58:16;;;;;;;1.40;1.10;;;19.60;50.60;;;;;;4992673;28;20185;-70
2022/04/09 07:00:44;;;;;;;1.55;1.13;;;19.60;50.50;;;;;;4992574;28;20216;-70
2022/04/09 07:03:10;;;;;;;1.42;1.25;;;19.60;50.50;;;;;;4976143;28;20247;-70
2022/04/09 07:05:36;;;;;;;1.60;1.38;;;19.60;50.50;;;;;;4960034;28;20176;-70
2022/04/09 07:08:03;;;;;;;1.40;1.30;;;19.60;50.50;;;;;;4976248;28;20207;-70
2022/04/09 07:10:29;;;;;;;1.35;1.25;;;19.60;50.50;;;;;;4976018;28;20606;-69
2022/04/09 07:12:55;;;;;;;1.95;1.50;;;19.60;50.40;;;;;;4992217;28;20199;-70
2022/04/09 07:15:21;;;;;;;1.48;1.38;;;19.70;50.50;;;;;;4960067;28;20220;-69
2022/04/09 07:17:46;;;;;;;1.40;1.30;;;19.60;50.40;;;;;;4960068;28;20275;-70
2022/04/09 07:20:12;;;;;;;1.58;1.30;;;19.60;50.40;;;;;;4993300;28;20188;-69
2022/04/09 07:22:38;;;;;;;1.80;1.52;;;19.60;50.40;;;;;;4976333;28;20239;-70
2022/04/09 07:25:05;;;;;;;1.55;1.45;;;19.60;50.40;;;;;;4992933;28;20207;-70
2022/04/09 07:27:40;;;;;;;1.17;1.13;;;19.60;50.40;;;;;;4975890;28;20595;-70
2022/04/09 07:30:13;;;;;;;1.33;0.93;;;19.60;50.40;;;;;;4975823;28;20196;-70
2022/04/09 07:32:40;;;;;;;1.98;1.25;;;19.60;50.40;;;;;;4992316;28;20184;-70
2022/04/09 07:35:06;;;;;;;1.55;1.20;;;19.60;50.40;;;;;;4975459;28;20209;-70
2022/04/09 07:37:38;;;;;;;1.30;1.20;;;19.70;50.40;;;;;;4975606;28;20189;-70
2022/04/09 07:40:06;;;;;;;1.88;1.35;;;19.70;50.40;;;;;;4975698;28;20188;-70
2022/04/09 07:42:33;;;;;;;1.35;1.25;;;19.70;50.30;;;;;;4975414;28;20692;-70
2022/04/09 07:44:59;;;;;;;1.77;1.33;;;19.70;50.30;;;;;;4975329;28;20216;-70
2022/04/09 07:47:25;;;;;;;1.98;1.38;;;19.70;50.30;;;;;;4975840;28;20185;-70
2022/04/09 07:49:50;;;;;;;1.40;1.30;;;19.70;50.30;;;;;;4959362;28;20196;-71
2022/04/09 07:52:16;;;;;;;2.00;1.60;;;19.70;50.30;;;;;;4992179;28;20195;-70
2022/04/09 07:54:42;;;;;;;1.60;1.40;;;19.70;50.30;;;;;;4986758;28;20293;-70
2022/04/09 07:57:07;;;;;;;1.85;1.73;;;19.70;50.30;;;;;;4998799;28;20184;-70
2022/04/09 07:59:33;;;;;;;1.50;1.40;;;19.70;50.30;;;;;;4999142;28;20187;-70
2022/04/09 08:01:59;;;;;;;1.65;1.40;;;19.70;50.30;;;;;;5016711;28;20231;-70
2022/04/09 08:04:24;;;;;;;1.60;1.50;;;19.70;50.20;;;;;;4998749;28;20766;-70
2022/04/09 08:06:50;;;;;;;1.58;1.40;;;19.70;50.20;;;;;;4998650;28;20196;-70
2022/04/09 08:09:17;;;;;;;1.58;1.42;;;19.70;50.20;;;;;;4998748;28;20192;-70
2022/04/09 08:11:42;;;;;;;1.27;1.10;;;19.70;50.20;;;;;;4998680;28;20176;-70
2022/04/09 08:14:08;;;;;;;1.45;1.35;;;19.80;50.90;;;;;;5014817;28;20280;-70
2022/04/09 08:16:34;;;;;;;1.23;1.13;;;19.80;50.20;;;;;;4998687;28;20196;-70
2022/04/09 08:19:01;;;;;;;1.40;1.30;;;19.80;50.20;;;;;;4998410;28;20180;-70
2022/04/09 08:21:26;;;;;;;1.50;1.23;;;19.80;50.20;;;;;;4998495;28;20216;-70
2022/04/09 08:23:52;;;;;;;1.20;1.10;;;19.80;50.20;;;;;;4998442;28;20219;-71
2022/04/09 08:26:18;;;;;;;1.00;1.00;;;19.80;50.10;;;;;;5006615;28;20180;-70
2022/04/09 08:28:44;;;;;;;1.10;1.10;;;19.80;50.10;;;;;;4995077;28;20555;-70
2022/04/09 08:31:09;;;;;;;1.08;1.08;;;19.80;50.10;;;;;;4978770;28;20197;-70
2022/04/09 08:33:35;;;;;;;1.20;1.10;;;19.90;50.20;;;;;;4979010;28;20219;-70
2022/04/09 08:36:04;;;;;;;1.00;1.00;;;19.90;50.20;;;;;;4983571;28;20237;-70
2022/04/09 08:38:30;;;;;;;1.30;1.20;;;19.90;50.10;;;;;;4998069;28;20214;-71
2022/04/09 08:41:00;;;;;;;1.00;1.00;;;19.90;50.10;;;;;;4998320;28;20208;-70
2022/04/09 08:43:26;;;;;;;1.10;1.10;;;19.90;50.10;;;;;;5015336;28;20211;-70
2022/04/09 08:45:53;;;;;;;1.30;1.20;;;19.90;50.10;;;;;;4997949;28;20192;-70
2022/04/09 08:48:21;;;;;;;1.33;1.23;;;19.90;50.10;;;;;;5014531;28;20277;-70
2022/04/09 08:50:47;;;;;;;2.05;1.80;;;20.00;50.10;;;;;;5014541;28;20168;-70
2022/04/09 08:53:13;;;;;;;2.00;1.65;;;20.00;50.10;;;;;;4998199;28;20377;-70
2022/04/09 08:55:40;;;;;;;1.65;1.48;;;20.00;50.10;;;;;;5014138;28;20184;-70
2022/04/09 08:58:06;;;;;;;2.38;1.98;;;20.00;50.00;;;;;;5038122;22;20639;-71
2022/04/09 09:00:33;;;;;;;2.40;2.20;;;20.00;50.00;;;;;;5033058;28;20314;-71
2022/04/09 09:03:01;;;;;;;1.67;1.58;;;19.90;49.90;;;;;;5033246;28;20274;-70
2022/04/09 09:05:42;;;;;;;2.88;1.73;;;20.00;50.10;;;;;;5016413;28;20270;-71
2022/04/09 09:08:10;;;;;;;1.60;1.50;;;20.00;50.70;;;;;;5016615;28;20797;-71
2022/04/09 09:10:37;;;;;;;1.10;1.10;;;19.90;50.00;;;;;;5034420;28;20179;-71
2022/04/09 09:13:09;;;;;;;1.50;1.40;;;19.90;50.00;;;;;;5016384;28;20277;-71
2022/04/09 09:15:52;;;;;;;1.83;1.30;;;20.00;50.10;;;;;;5016031;28;20261;-70
2022/04/09 09:18:20;;;;;;;1.30;1.20;;;20.00;50.00;;;;;;5034289;28;20632;-70
2022/04/09 09:20:54;;;;;;;1.42;1.23;;;20.00;50.00;;;;;;5033116;28;20261;-70
2022/04/09 09:23:33;;;;;;;1.50;1.40;;;20.00;50.00;;;;;;5032721;28;20180;-70
2022/04/09 09:26:01;;;;;;;1.63;1.52;;;20.00;50.00;;;;;;5016737;28;20187;-71
2022/04/09 09:28:30;;;;;;;1.75;1.42;;;20.00;49.90;;;;;;5033387;28;20230;-70
2022/04/09 09:30:57;;;;;;;1.77;1.48;;;20.00;49.90;;;;;;5033065;28;20800;-70
2022/04/09 09:33:25;;;;;;;3.03;2.13;;;20.00;49.90;;;;;;5033342;28;20689;-70
2022/04/09 09:35:59;;;;;;;1.58;1.48;;;20.00;49.90;;;;;;5033469;28;20175;-70
2022/04/09 09:38:33;;;;;;;1.60;1.48;;;20.00;49.90;;;;;;5033423;28;20206;-70
2022/04/09 09:41:01;;;;;;;1.38;1.27;;;20.00;50.00;;;;;;5033115;28;20606;-70
2022/04/09 09:43:27;;;;;;;2.42;1.80;;;20.00;49.90;;;;;;5033375;28;20188;-70
2022/04/09 09:45:54;;;;;;;1.45;1.20;;;20.10;49.90;;;;;;5032774;28;20217;-70
2022/04/09 09:48:25;;;;;;;2.95;1.40;;;20.00;49.90;;;;;;4999965;28;20203;-70
2022/04/09 09:50:54;;;;;;;1.60;1.50;;;20.10;49.90;;;;;;5033219;28;20226;-70
2022/04/09 09:53:29;;;;;;;3.33;1.67;;;20.10;49.90;;;;;;5032906;28;20669;-70
2022/04/09 09:55:56;;;;;;;2.20;1.50;;;20.10;49.90;;;;;;5032611;28;20581;-70
2022/04/09 09:58:23;;;;;;;1.50;1.40;;;20.10;49.80;;;;;;5016164;28;20223;-70
2022/04/09 10:00:49;;;;;;;1.40;1.30;;;20.10;49.80;;;;;;5020169;28;20235;-70
2022/04/09 10:03:16;;;;;;;1.85;1.30;;;20.10;49.80;;;;;;5012968;28;20647;-69
2022/04/09 10:05:43;;;;;;;2.22;1.50;;;20.10;49.80;;;;;;5013876;28;20172;-70
2022/04/09 10:08:09;;;;;;;2.20;1.50;;;20.10;49.90;;;;;;5012652;28;20200;-70
2022/04/09 10:10:37;;;;;;;1.52;1.42;;;20.20;49.90;;;;;;5012927;28;20659;-70
2022/04/09 10:13:04;;;;;;;1.45;1.35;;;20.10;49.80;;;;;;5013945;28;20176;-70
2022/04/09 10:15:31;;;;;;;1.48;1.38;;;20.20;49.90;;;;;;5011871;28;20195;-70
2022/04/09 10:18:00;;;;;;;1.58;1.48;;;20.20;49.80;;;;;;5012838;28;20235;-69
2022/04/09 10:20:27;;;;;;;1.42;1.33;;;20.20;49.80;;;;;;5012829;28;20220;-70
2022/04/09 10:23:00;;;;;;;1.42;1.33;;;20.20;49.80;;;;;;5012478;28;20238;-70
2022/04/09 10:25:29;;;;;;;1.60;1.23;;;20.20;49.80;;;;;;5012380;28;20223;-70
2022/04/09 10:28:03;;;;;;;1.88;1.40;;;20.20;49.80;;;;;;5012711;28;20718;-70
2022/04/09 10:30:41;;;;;;;1.40;1.30;;;20.20;49.90;;;;;;5012484;28;20857;-70
2022/04/09 10:33:22;;;;;;;1.30;1.20;;;20.10;49.80;;;;;;4996451;28;20184;-70
2022/04/09 10:35:48;;;;;;;1.60;1.50;;;20.10;49.80;;;;;;5012487;28;20187;-69
2022/04/09 10:38:18;;;;;;;1.42;1.33;;;20.10;49.80;;;;;;5013302;28;20211;-70
2022/04/09 10:40:50;;;;;;;1.80;1.27;;;20.10;49.80;;;;;;4996132;28;20246;-70
2022/04/09 10:43:25;;;;;;;1.30;1.20;;;20.20;49.80;;;;;;4995819;28;20184;-70
2022/04/09 10:46:04;;;;;;;1.45;1.35;;;20.20;49.80;;;;;;5012173;28;20198;-69
2022/04/09 10:48:35;;;;;;;1.58;1.30;;;20.20;49.80;;;;;;5012018;28;20203;-70
2022/04/09 10:51:06;;;;;;;1.52;1.40;;;20.20;49.70;;;;;;5013309;28;20192;-70
2022/04/09 10:53:39;;;;;;;1.60;1.30;;;20.20;49.70;;;;;;4995729;28;20176;-70
2022/04/09 10:56:24;;;;;;;1.83;1.33;;;20.20;49.70;;;;;;4995944;28;20177;-68
2022/04/09 10:59:11;;;;;;;2.30;1.30;;;20.20;49.80;;;;;;4995326;28;20275;-70
2022/04/09 11:01:46;;;;;;;2.10;1.30;;;20.20;49.80;;;;;;4975971;28;20216;-70
2022/04/09 11:04:31;;;;;;;1.63;1.30;;;20.10;49.80;;;;;;4975970;28;20193;-70
2022/04/09 11:07:22;;;;;;;2.00;1.23;;;20.20;49.80;;;;;;4992412;28;20173;-70
2022/04/09 11:10:00;;;;;;;1.50;1.40;;;20.20;49.80;;;;;;4992156;28;20247;-70
2022/04/09 11:12:27;;;;;;;1.30;1.20;;;20.20;49.80;;;;;;4993290;28;20185;-71
2022/04/09 11:14:56;;;;;;;1.13;1.02;;;20.20;49.70;;;;;;4976020;28;20257;-70
2022/04/09 11:17:31;;;;;;;1.52;1.42;;;20.30;49.80;;;;;;4975764;28;20208;-71
2022/04/09 11:20:09;;;;;;;1.30;1.20;;;20.20;49.70;;;;;;4992277;28;20710;-71
2022/04/09 11:22:47;;;;;;;1.55;1.23;;;20.20;49.70;;;;;;4992204;28;20223;-70
2022/04/09 11:25:21;;;;;;;1.33;1.20;;;20.30;49.80;;;;;;4975621;28;20303;-71
2022/04/09 11:27:48;;;;;;;1.20;1.10;;;20.30;49.80;;;;;;5001877;28;20242;-70
2022/04/09 11:30:15;;;;;;;1.30;1.20;;;20.20;49.80;;;;;;4987377;28;20184;-71
2022/04/09 11:32:41;;;;;;;1.40;1.30;;;20.30;49.90;;;;;;4995181;28;20188;-70
2022/04/09 11:35:11;;;;;;;1.27;1.17;;;20.20;49.80;;;;;;4994494;28;20192;-70
2022/04/09 11:37:42;;;;;;;1.27;1.15;;;20.20;49.80;;;;;;5011460;28;20243;-70
2022/04/09 11:40:10;;;;;;;2.28;1.40;;;20.30;50.00;;;;;;5011712;28;20188;-70
2022/04/09 11:42:50;;;;;;;1.33;1.08;;;20.20;49.80;;;;;;5011344;28;20231;-70
2022/04/09 11:45:31;;;;;;;1.40;1.30;;;20.20;49.70;;;;;;5011304;28;20225;-70
2022/04/09 11:48:05;;;;;;;1.33;1.23;;;20.20;49.70;;;;;;5010401;28;20234;-70
2022/04/09 11:50:39;;;;;;;1.40;1.08;;;20.20;49.70;;;;;;4995221;28;20188;-70
2022/04/09 11:53:23;;;;;;;1.30;1.10;;;20.30;49.80;;;;;;4994383;28;20222;-70
2022/04/09 11:55:59;;;;;;;3.05;1.33;;;20.30;49.70;;;;;;5007956;28;20228;-70
2022/04/09 11:58:34;;;;;;;2.85;1.00;;;20.40;50.30;;;;;;4975234;28;20216;-71
2022/04/09 12:01:01;;;;;;;2.08;1.30;;;20.40;50.20;;;;;;5008158;28;20243;-71
2022/04/09 12:03:27;;;;;;;9.93;1.10;;;20.30;50.10;;;;;;4959419;28;20195;-71
2022/04/09 12:05:54;;;;;;;2.25;1.20;;;20.30;50.10;;;;;;5012424;28;20214;-72
2022/04/09 12:08:25;;;;;;;4.22;1.35;;;20.30;50.10;;;;;;5012311;28;20208;-72
2022/04/09 12:11:02;;;;;;;3.75;1.27;;;20.30;50.10;;;;;;4994403;28;20249;-71
2022/04/09 12:13:39;;;;;;;1.85;1.10;;;20.30;50.10;;;;;;4994619;28;20210;-71
2022/04/09 12:16:11;;;;;;;2.70;1.20;;;20.30;50.00;;;;;;4978111;28;20208;-71
2022/04/09 12:18:38;;;;;;;3.45;1.48;;;20.30;50.10;;;;;;4978574;28;20572;-71
2022/04/09 12:21:24;;;;;;;2.95;1.30;;;20.30;50.00;;;;;;4994411;28;20222;-70
2022/04/09 12:24:07;;;;;;;1.73;1.05;;;20.30;50.00;;;;;;4991723;28;20180;-70
2022/04/09 12:26:39;;;;;;;1.85;1.10;;;20.20;49.80;;;;;;4993092;28;20183;-71
2022/04/09 12:29:20;;;;;;;1.65;1.20;;;20.30;50.00;;;;;;4994526;28;20204;-70
2022/04/09 12:31:56;;;;;;;1.52;1.10;;;20.30;50.00;;;;;;5010716;28;20192;-71
2022/04/09 12:34:22;;;;;;;1.73;0.95;;;20.30;50.00;;;;;;4994392;28;20188;-70
2022/04/09 12:37:05;;;;;;;1.80;1.17;;;20.30;49.90;;;;;;4994104;28;20682;-70
2022/04/09 12:39:33;;;;;;;1.63;1.10;;;20.30;50.00;;;;;;5013017;28;20183;-71
2022/04/09 12:42:00;;;;;;;1.77;1.30;;;20.30;49.90;;;;;;4998040;28;20307;-70
2022/04/09 12:44:27;;;;;;;2.30;1.40;;;20.30;50.00;;;;;;5014490;28;20254;-71
2022/04/09 12:46:53;;;;;;;2.80;1.05;;;20.30;49.90;;;;;;5013875;28;20188;-68
2022/04/09 12:49:45;;;;;;;1.38;1.10;;;20.30;49.90;;;;;;4997538;28;20184;-69
2022/04/09 12:52:12;;;;;;;2.20;1.10;;;20.30;49.90;;;;;;5014779;28;20201;-71
2022/04/09 12:54:39;;;;;;;2.30;1.27;;;20.30;49.80;;;;;;4997152;28;20223;-71
2022/04/09 12:57:11;;;;;;;1.58;0.90;;;20.30;49.80;;;;;;4997394;28;20693;-72